Time;durP1;ratioP1;P1;durP2;ratioP2;P2;SDS_P1;SDS_P2;PMS_P1;PMS_P2;Temp;Humidity;BMP_temperature;BMP_pressure;BME280_temperature;BME280_humidity;BME280_pressure;Samples;Min_cycle;Max_cycle;Signal;HPM_P1;HPM_P2
2023/04/12 00:00:38;;;;;;;4.00;3.50;;;10.50;99.90;;;;;;12855163;23;20202;-87
2023/04/12 00:05:45;;;;;;;4.87;4.23;;;10.30;99.90;;;;;;12852326;23;20568;-87
2023/04/12 00:10:48;;;;;;;7.40;4.10;;;10.60;99.90;;;;;;12851787;23;20178;-87
2023/04/12 00:15:50;;;;;;;5.27;3.73;;;10.40;99.90;;;;;;12854040;23;20163;-87
2023/04/12 00:20:55;;;;;;;7.53;4.83;;;10.50;99.90;;;;;;12854690;23;20245;-87
2023/04/12 00:25:57;;;;;;;6.63;5.20;;;10.20;99.90;;;;;;12852776;23;20668;-87
2023/04/12 00:31:00;;;;;;;5.97;4.00;;;10.20;99.90;;;;;;12851293;23;20712;-87
2023/04/12 00:36:03;;;;;;;3.73;3.03;;;10.20;99.90;;;;;;12853784;23;20198;-87
2023/04/12 00:41:05;;;;;;;4.93;3.73;;;10.70;99.90;;;;;;12850307;23;20180;-87
2023/04/12 00:46:11;;;;;;;4.00;2.80;;;11.00;99.90;;;;;;12849432;23;20175;-87
2023/04/12 00:51:13;;;;;;;7.10;4.30;;;11.30;99.90;;;;;;12849398;23;20195;-87
2023/04/12 00:56:16;;;;;;;4.30;3.77;;;11.20;99.90;;;;;;12848874;23;20183;-87
2023/04/12 01:01:20;;;;;;;2.33;2.03;;;10.90;99.90;;;;;;12869617;23;20198;-87
2023/04/12 01:07:00;;;;;;;4.60;3.37;;;11.30;99.90;;;;;;12849635;23;20187;-87
2023/04/12 01:12:33;;;;;;;5.43;3.77;;;11.60;99.90;;;;;;12867372;23;20187;-87
2023/04/12 01:18:08;;;;;;;3.60;2.67;;;11.50;99.90;;;;;;12848762;23;20171;-88
2023/04/12 01:23:36;;;;;;;5.07;3.87;;;11.90;99.90;;;;;;12819798;23;20286;-87
2023/04/12 01:28:43;;;;;;;7.80;4.03;;;12.00;99.90;;;;;;12847973;23;20183;-87
2023/04/12 01:33:48;;;;;;;5.13;3.37;;;11.50;99.90;;;;;;12851214;23;20187;-87
2023/04/12 01:38:54;;;;;;;4.30;3.70;;;11.80;99.90;;;;;;12848711;23;20182;-87
2023/04/12 01:43:56;;;;;;;4.33;3.93;;;11.80;99.90;;;;;;12849258;23;20708;-87
2023/04/12 01:48:59;;;;;;;5.67;4.87;;;11.80;99.90;;;;;;12850789;23;20174;-87
2023/04/12 01:54:10;;;;;;;4.67;3.53;;;11.60;99.90;;;;;;12849166;23;20206;-87
2023/04/12 01:59:14;;;;;;;6.80;4.33;;;11.30;99.90;;;;;;12850654;23;20589;-87
2023/04/12 02:04:19;;;;;;;4.13;3.37;;;11.10;99.90;;;;;;12849040;23;20626;-87
2023/04/12 02:09:22;;;;;;;3.70;3.27;;;11.40;99.90;;;;;;12850698;23;20245;-87
2023/04/12 02:14:25;;;;;;;5.73;4.63;;;11.40;99.90;;;;;;12847595;23;20222;-87
2023/04/12 02:19:28;;;;;;;9.20;5.30;;;11.40;99.90;;;;;;12848663;23;20179;-88
2023/04/12 02:24:32;;;;;;;4.53;3.87;;;11.30;99.90;;;;;;12848949;23;20230;-87
2023/04/12 02:29:34;;;;;;;5.53;5.03;;;11.30;99.90;;;;;;12852703;23;20530;-87
2023/04/12 02:34:38;;;;;;;4.00;3.20;;;11.10;99.90;;;;;;12853532;23;20721;-87
2023/04/12 02:39:55;;;;;;;7.50;5.57;;;11.70;99.90;;;;;;12852693;23;20183;-87
2023/04/12 02:44:59;;;;;;;5.07;4.43;;;11.60;99.90;;;;;;12851950;23;20187;-87
2023/04/12 02:50:04;;;;;;;5.73;4.67;;;11.70;99.90;;;;;;12827967;23;20175;-87
2023/04/12 02:55:14;;;;;;;8.10;6.73;;;11.60;99.90;;;;;;12851645;23;20265;-87
2023/04/12 03:00:17;;;;;;;6.13;4.63;;;11.50;99.90;;;;;;12851997;23;20503;-87
2023/04/12 03:05:23;;;;;;;3.80;3.40;;;11.20;99.90;;;;;;12851508;23;20175;-87
2023/04/12 03:10:26;;;;;;;3.80;3.40;;;11.60;99.90;;;;;;12852326;23;20209;-87
2023/04/12 03:15:36;;;;;;;5.70;4.37;;;11.50;99.90;;;;;;12856727;23;20183;-87
2023/04/12 03:20:42;;;;;;;3.73;2.97;;;11.50;99.90;;;;;;12854193;23;20249;-87
2023/04/12 03:25:48;;;;;;;8.43;6.10;;;11.50;99.90;;;;;;12853157;23;20206;-87
2023/04/12 03:31:09;;;;;;;6.63;5.90;;;11.50;99.90;;;;;;12852137;23;20244;-87
2023/04/12 03:36:16;;;;;;;8.67;5.97;;;11.20;99.90;;;;;;12852150;23;20199;-87
2023/04/12 03:41:23;;;;;;;5.63;4.13;;;10.70;99.90;;;;;;12852515;23;20238;-87
2023/04/12 03:46:26;;;;;;;7.37;6.10;;;11.00;99.90;;;;;;12870137;23;20514;-87
2023/04/12 03:51:33;;;;;;;7.40;6.65;;;10.80;99.90;;;;;;12853131;23;20241;-87
2023/04/12 03:56:38;;;;;;;7.47;6.23;;;10.30;99.90;;;;;;12851501;23;20179;-87
2023/04/12 04:01:47;;;;;;;4.60;4.00;;;10.10;99.90;;;;;;12852073;23;20226;-88
2023/04/12 04:06:51;;;;;;;5.83;5.23;;;9.50;99.90;;;;;;12852565;23;20503;-88
2023/04/12 04:11:54;;;;;;;7.63;6.20;;;9.70;99.90;;;;;;12851805;23;20549;-87
2023/04/12 04:16:58;;;;;;;5.17;4.00;;;9.60;99.90;;;;;;12851377;23;20283;-88
2023/04/12 04:22:01;;;;;;;12.90;7.57;;;9.90;99.90;;;;;;12851731;23;20183;-89
2023/04/12 04:27:05;;;;;;;6.03;5.40;;;10.00;99.90;;;;;;12851851;23;20216;-87
2023/04/12 04:32:07;;;;;;;8.63;6.40;;;9.70;99.90;;;;;;12851206;23;20179;-88
2023/04/12 04:37:11;;;;;;;9.77;7.03;;;10.30;99.90;;;;;;12850768;23;20179;-87
2023/04/12 04:42:16;;;;;;;8.47;5.77;;;10.10;99.90;;;;;;12851354;23;20241;-87
2023/04/12 04:47:35;;;;;;;11.53;9.30;;;9.90;99.90;;;;;;12851454;23;20241;-88
2023/04/12 04:52:40;;;;;;;14.43;9.53;;;10.20;99.90;;;;;;12852101;23;20199;-88
2023/04/12 04:57:47;;;;;;;13.83;8.43;;;10.40;99.90;;;;;;12850522;23;20581;-88
2023/04/12 05:02:51;;;;;;;9.93;8.07;;;9.90;99.90;;;;;;12851067;23;20183;-88
2023/04/12 05:07:58;;;;;;;10.10;7.93;;;9.60;99.90;;;;;;12850402;23;20249;-88
2023/04/12 05:13:09;;;;;;;10.37;7.00;;;9.60;99.90;;;;;;12850882;23;20199;-88
2023/04/12 05:18:14;;;;;;;9.13;6.97;;;9.70;99.90;;;;;;12851286;23;20206;-88
2023/04/12 05:23:16;;;;;;;9.80;7.97;;;9.50;99.90;;;;;;12853062;23;20171;-88
2023/04/12 05:28:19;;;;;;;10.30;7.23;;;9.80;99.90;;;;;;12850182;23;20257;-88
2023/04/12 05:33:22;;;;;;;9.00;6.87;;;10.20;99.90;;;;;;12850473;23;20198;-88
2023/04/12 05:38:24;;;;;;;7.07;5.97;;;9.90;99.90;;;;;;12871925;23;20167;-88
2023/04/12 05:43:31;;;;;;;13.63;8.20;;;10.10;99.90;;;;;;12850885;23;20241;-88
2023/04/12 05:48:34;;;;;;;10.93;7.30;;;9.80;99.90;;;;;;12851341;23;20241;-88
2023/04/12 05:53:37;;;;;;;7.50;6.73;;;9.30;99.90;;;;;;12850713;23;20647;-88
2023/04/12 05:58:41;;;;;;;8.90;7.30;;;9.70;99.90;;;;;;12851097;23;20564;-88
2023/04/12 06:03:45;;;;;;;11.17;6.87;;;9.60;99.90;;;;;;12854784;23;20218;-89
2023/04/12 06:08:47;;;;;;;7.50;6.20;;;9.40;99.90;;;;;;12855012;23;20910;-87
2023/04/12 06:13:50;;;;;;;9.67;7.60;;;9.60;99.90;;;;;;12854512;23;20199;-87
2023/04/12 06:18:53;;;;;;;11.30;8.30;;;9.90;99.90;;;;;;12830199;23;20252;-87
2023/04/12 06:23:55;;;;;;;8.57;7.30;;;10.00;99.90;;;;;;12855536;23;20206;-86
2023/04/12 06:28:58;;;;;;;9.90;7.83;;;10.50;99.90;;;;;;12854911;23;20183;-87
2023/04/12 06:34:01;;;;;;;8.93;7.57;;;10.40;99.90;;;;;;12828864;23;20195;-86
2023/04/12 06:39:05;;;;;;;13.57;9.13;;;10.40;99.90;;;;;;12854012;23;20237;-87
2023/04/12 06:44:08;;;;;;;8.73;7.83;;;10.90;99.90;;;;;;12792054;23;20204;-79
2023/04/12 06:49:11;;;;;;;12.23;8.90;;;11.40;99.90;;;;;;12734431;23;20165;-79
2023/04/12 06:54:13;;;;;;;8.10;6.93;;;11.10;99.90;;;;;;12751258;23;20494;-78
2023/04/12 06:59:16;;;;;;;9.23;6.60;;;11.20;99.90;;;;;;12740612;23;20168;-79
2023/04/12 07:04:19;;;;;;;10.27;7.23;;;11.80;99.90;;;;;;12728489;23;20503;-77
2023/04/12 07:09:22;;;;;;;9.87;8.20;;;11.90;99.90;;;;;;12729678;23;20238;-79
2023/04/12 07:14:25;;;;;;;8.27;6.00;;;11.50;99.90;;;;;;12729270;23;20251;-78
2023/04/12 07:19:30;;;;;;;12.30;9.30;;;11.90;99.90;;;;;;12730166;23;20180;-79
2023/04/12 07:24:32;;;;;;;9.87;8.63;;;11.70;99.90;;;;;;12730728;23;20208;-79
2023/04/12 07:29:35;;;;;;;9.50;7.47;;;11.40;99.90;;;;;;12730386;23;20512;-78
2023/04/12 07:34:38;;;;;;;14.90;11.63;;;11.30;99.90;;;;;;12730804;23;20593;-78
2023/04/12 07:39:41;;;;;;;6.97;6.27;;;11.20;99.90;;;;;;12730578;23;20671;-78
2023/04/12 07:44:43;;;;;;;11.27;9.17;;;11.40;99.90;;;;;;12764894;23;20666;-78
2023/04/12 07:49:46;;;;;;;13.27;10.47;;;11.20;99.90;;;;;;12792536;23;20500;-79
2023/04/12 07:54:48;;;;;;;11.83;9.80;;;10.90;99.90;;;;;;12809874;23;20218;-79
2023/04/12 07:59:51;;;;;;;11.50;9.13;;;10.50;99.90;;;;;;12763804;23;20188;-78
2023/04/12 08:04:53;;;;;;;7.97;7.17;;;10.70;99.90;;;;;;12791287;23;20175;-79
2023/04/12 08:09:56;;;;;;;11.40;8.83;;;11.30;99.90;;;;;;12791139;23;20184;-78
2023/04/12 08:14:58;;;;;;;8.00;7.17;;;11.50;99.90;;;;;;12790332;23;20195;-78
2023/04/12 08:20:02;;;;;;;13.30;9.47;;;11.60;99.90;;;;;;12789491;23;20184;-78
2023/04/12 08:25:05;;;;;;;9.57;8.57;;;11.80;99.90;;;;;;12790460;23;20195;-78
2023/04/12 08:30:09;;;;;;;11.27;8.70;;;11.80;99.90;;;;;;12791320;23;20176;-78
2023/04/12 08:35:13;;;;;;;11.33;8.03;;;12.00;99.90;;;;;;12789932;23;20199;-78
2023/04/12 08:40:16;;;;;;;11.97;8.70;;;12.60;99.90;;;;;;12790930;23;20234;-78
2023/04/12 08:45:23;;;;;;;10.20;8.33;;;12.50;99.90;;;;;;12787945;23;20262;-79
2023/04/12 08:50:26;;;;;;;13.23;10.27;;;12.60;99.90;;;;;;12808129;23;20511;-80
2023/04/12 08:55:29;;;;;;;4.70;4.30;;;12.40;99.90;;;;;;12790216;23;20184;-80
2023/04/12 09:00:33;;;;;;;15.90;12.47;;;12.70;99.90;;;;;;12763964;23;20203;-80
2023/04/12 09:05:35;;;;;;;12.57;10.63;;;12.60;99.90;;;;;;12761498;23;20184;-80
2023/04/12 09:10:38;;;;;;;6.90;6.17;;;12.60;99.90;;;;;;12789672;23;20219;-78
2023/04/12 09:15:50;;;;;;;15.53;8.60;;;12.50;99.90;;;;;;12762945;23;20222;-79
2023/04/12 09:21:11;;;;;;;14.03;10.33;;;12.80;99.90;;;;;;12789090;23;20575;-79
2023/04/12 09:26:28;;;;;;;6.53;5.93;;;12.70;99.90;;;;;;12806915;23;20374;-78
2023/04/12 09:31:30;;;;;;;10.67;8.37;;;12.90;99.90;;;;;;12789277;23;20214;-81
2023/04/12 09:36:37;;;;;;;9.27;6.73;;;12.70;99.90;;;;;;12789472;23;20191;-80
2023/04/12 09:41:40;;;;;;;7.13;6.30;;;12.60;99.90;;;;;;12737951;23;20233;-80
2023/04/12 09:47:03;;;;;;;7.60;6.03;;;12.70;99.90;;;;;;12781422;23;20705;-80
2023/04/12 09:52:07;;;;;;;8.00;6.87;;;12.90;99.90;;;;;;12807282;23;20171;-80
2023/04/12 09:57:11;;;;;;;7.60;6.90;;;12.80;99.90;;;;;;12762028;23;20270;-79
2023/04/12 10:02:15;;;;;;;8.67;7.33;;;12.80;99.90;;;;;;12789029;23;20176;-80
2023/04/12 10:07:19;;;;;;;10.93;8.10;;;12.90;99.90;;;;;;12787858;23;20180;-80
2023/04/12 10:12:21;;;;;;;7.70;6.90;;;13.00;99.90;;;;;;12789241;23;20227;-80
2023/04/12 10:17:25;;;;;;;10.30;8.83;;;13.30;99.90;;;;;;12806192;23;20574;-80
2023/04/12 10:22:28;;;;;;;5.40;4.90;;;13.40;99.90;;;;;;12789353;23;20180;-80
2023/04/12 10:27:31;;;;;;;6.10;5.37;;;13.60;99.90;;;;;;12789920;23;20176;-79
2023/04/12 10:32:34;;;;;;;4.70;4.30;;;13.80;99.90;;;;;;12789484;23;20552;-79
2023/04/12 10:38:00;;;;;;;4.77;4.27;;;14.20;99.90;;;;;;12789393;23;20609;-78
2023/04/12 10:43:21;;;;;;;5.30;4.80;;;14.50;99.90;;;;;;12788931;23;20199;-80
2023/04/12 10:48:38;;;;;;;5.93;4.90;;;14.70;99.90;;;;;;12782307;23;20514;-80
2023/04/12 10:53:41;;;;;;;7.70;5.17;;;14.70;99.90;;;;;;12792378;23;20927;-79
2023/04/12 10:58:50;;;;;;;6.03;4.33;;;14.70;99.90;;;;;;12764571;23;20285;-79
2023/04/12 11:04:15;;;;;;;4.00;3.60;;;14.50;99.90;;;;;;12789793;23;20563;-80
2023/04/12 11:09:32;;;;;;;5.23;4.23;;;14.30;99.10;;;;;;12765271;23;20514;-79
2023/04/12 11:14:36;;;;;;;3.80;3.50;;;14.20;96.80;;;;;;12764422;23;20196;-79
2023/04/12 11:19:43;;;;;;;4.13;3.77;;;14.20;99.90;;;;;;12792145;23;20639;-80
2023/04/12 11:24:51;;;;;;;3.97;3.57;;;14.20;99.90;;;;;;12764426;23;20282;-79
2023/04/12 11:29:56;;;;;;;6.43;4.20;;;14.30;98.20;;;;;;12790951;23;20187;-79
2023/04/12 11:34:59;;;;;;;6.27;4.77;;;14.30;95.10;;;;;;12791307;23;20242;-79
2023/04/12 11:40:08;;;;;;;4.23;3.87;;;14.20;94.70;;;;;;12763792;23;20185;-79
2023/04/12 11:45:10;;;;;;;4.27;3.47;;;14.40;99.90;;;;;;12790421;23;20208;-79
2023/04/12 11:50:29;;;;;;;6.27;5.30;;;14.40;99.90;;;;;;12765928;23;20250;-80
2023/04/12 11:55:32;;;;;;;11.83;6.10;;;14.30;95.10;;;;;;12790862;23;20277;-79
2023/04/12 12:00:35;;;;;;;7.17;5.20;;;14.00;93.30;;;;;;12763962;23;20242;-80
2023/04/12 12:05:40;;;;;;;5.83;4.77;;;14.00;92.70;;;;;;12791027;23;20247;-80
2023/04/12 12:10:44;;;;;;;11.27;5.43;;;14.10;93.90;;;;;;12789338;23;20187;-79
2023/04/12 12:16:07;;;;;;;6.30;5.27;;;14.30;95.10;;;;;;12788555;23;20195;-78
2023/04/12 12:21:12;;;;;;;7.80;5.60;;;14.30;94.60;;;;;;12781461;23;20546;-78
2023/04/12 12:26:26;;;;;;;5.37;4.87;;;14.40;92.20;;;;;;12788582;23;20256;-80
2023/04/12 12:31:29;;;;;;;6.13;4.63;;;14.70;93.60;;;;;;12764354;23;20206;-80
2023/04/12 12:36:34;;;;;;;5.83;4.67;;;14.60;92.50;;;;;;12805988;23;20234;-80
2023/04/12 12:41:38;;;;;;;4.97;4.47;;;14.50;96.80;;;;;;12788792;23;20191;-79
2023/04/12 12:46:41;;;;;;;7.77;4.67;;;14.40;98.30;;;;;;12763712;23;20241;-79
2023/04/12 12:51:46;;;;;;;5.10;4.60;;;14.20;98.00;;;;;;12789477;23;20171;-79
2023/04/12 12:56:49;;;;;;;3.90;3.30;;;14.00;94.20;;;;;;12787377;23;20204;-79
2023/04/12 13:01:51;;;;;;;4.93;4.43;;;13.90;99.50;;;;;;12763050;23;20168;-80
2023/04/12 13:06:54;;;;;;;6.33;4.70;;;13.80;97.20;;;;;;12763792;23;20556;-79
2023/04/12 13:11:56;;;;;;;4.03;3.63;;;13.50;94.50;;;;;;12788383;23;20523;-79
2023/04/12 13:16:59;;;;;;;10.57;6.10;;;13.50;97.70;;;;;;12788117;23;20526;-80
2023/04/12 13:22:01;;;;;;;6.07;4.90;;;13.50;93.90;;;;;;12788503;23;20168;-78
2023/04/12 13:27:04;;;;;;;6.23;4.43;;;13.50;94.70;;;;;;12787396;23;20272;-79
2023/04/12 13:32:07;;;;;;;6.07;5.47;;;13.60;94.30;;;;;;12780856;23;20171;-78
2023/04/12 13:37:10;;;;;;;4.93;4.43;;;13.40;91.00;;;;;;12789116;23;20517;-78
2023/04/12 13:42:12;;;;;;;5.57;4.43;;;13.30;90.60;;;;;;12762304;23;20207;-79
2023/04/12 13:47:16;;;;;;;4.50;4.10;;;13.40;93.80;;;;;;12761557;23;20180;-79
2023/04/12 13:52:19;;;;;;;3.30;2.90;;;13.40;92.00;;;;;;12788421;23;20184;-79
2023/04/12 13:57:22;;;;;;;3.90;3.33;;;13.60;97.60;;;;;;12808401;23;20238;-79
2023/04/12 14:02:24;;;;;;;3.97;2.80;;;14.10;99.90;;;;;;12764288;23;20180;-79
2023/04/12 14:07:28;;;;;;;4.63;3.77;;;14.20;93.60;;;;;;12789996;23;20168;-78
2023/04/12 14:12:31;;;;;;;3.20;2.90;;;14.30;98.70;;;;;;12764026;23;20172;-78
2023/04/12 14:17:33;;;;;;;4.53;3.30;;;14.20;92.20;;;;;;12788128;23;20196;-79
2023/04/12 14:22:36;;;;;;;4.40;4.00;;;13.40;86.10;;;;;;12767840;23;20237;-79
2023/04/12 14:27:39;;;;;;;4.50;3.73;;;13.00;78.30;;;;;;12792402;23;20188;-79
2023/04/12 14:32:41;;;;;;;3.33;1.97;;;12.70;77.00;;;;;;12794393;23;20234;-80
2023/04/12 14:37:47;;;;;;;2.50;2.30;;;12.60;79.80;;;;;;12786665;23;20245;-79
2023/04/12 14:42:50;;;;;;;2.90;2.50;;;12.40;74.60;;;;;;12766523;23;20207;-79
2023/04/12 14:47:53;;;;;;;3.00;2.80;;;12.50;83.00;;;;;;12794682;23;20180;-80
2023/04/12 14:52:55;;;;;;;3.03;2.73;;;12.70;84.80;;;;;;12766220;23;20187;-80
2023/04/12 14:57:58;;;;;;;2.80;2.47;;;12.90;91.90;;;;;;12793859;23;20219;-80
2023/04/12 15:03:00;;;;;;;2.90;2.63;;;12.90;83.30;;;;;;12767057;23;20179;-80
2023/04/12 15:08:03;;;;;;;3.30;3.00;;;13.20;93.20;;;;;;12794541;23;20183;-80
2023/04/12 15:13:06;;;;;;;3.63;3.00;;;13.10;92.70;;;;;;12809896;23;20517;-80
2023/04/12 15:18:09;;;;;;;3.10;2.80;;;13.10;96.70;;;;;;12794243;23;20249;-79
2023/04/12 15:23:11;;;;;;;3.67;3.20;;;13.10;92.30;;;;;;12768394;23;20510;-80
2023/04/12 15:28:14;;;;;;;2.10;1.90;;;13.20;97.40;;;;;;12767209;23;20167;-81
2023/04/12 15:33:17;;;;;;;9.97;3.17;;;13.50;99.90;;;;;;12741137;23;20800;-82
2023/04/12 15:38:20;;;;;;;2.43;2.23;;;13.80;99.10;;;;;;12765142;23;20188;-78
2023/04/12 15:43:25;;;;;;;2.20;1.97;;;13.80;99.90;;;;;;12727416;23;20255;-79
2023/04/12 15:48:28;;;;;;;4.03;2.90;;;13.80;98.30;;;;;;12729218;23;20215;-79
2023/04/12 15:53:30;;;;;;;3.00;2.80;;;14.20;99.40;;;;;;12728690;23;20223;-80
2023/04/12 15:58:33;;;;;;;2.47;2.07;;;13.70;97.50;;;;;;12702119;23;20851;-80
2023/04/12 16:03:36;;;;;;;2.20;2.00;;;13.40;99.30;;;;;;12730612;23;20164;-80
2023/04/12 16:08:39;;;;;;;2.77;2.40;;;13.40;98.50;;;;;;12729017;23;20503;-79
2023/04/12 16:13:44;;;;;;;1.43;1.33;;;13.40;99.90;;;;;;12701184;23;20621;-79
2023/04/12 16:18:47;;;;;;;2.17;1.97;;;13.70;99.90;;;;;;12728066;23;20274;-79
2023/04/12 16:23:50;;;;;;;3.90;1.97;;;13.30;95.20;;;;;;12728266;23;20216;-79
2023/04/12 16:28:52;;;;;;;2.20;1.80;;;13.20;99.90;;;;;;12727972;23;20177;-80
2023/04/12 16:33:55;;;;;;;2.80;2.60;;;13.10;99.90;;;;;;12703647;23;20188;-79
2023/04/12 16:38:59;;;;;;;2.47;2.03;;;13.00;99.90;;;;;;12728016;23;20200;-79
2023/04/12 16:44:02;;;;;;;1.80;1.70;;;12.90;99.90;;;;;;12728930;23;20196;-78
2023/04/12 16:49:04;;;;;;;3.50;2.53;;;12.90;99.90;;;;;;12730862;23;20180;-78
2023/04/12 16:54:07;;;;;;;4.10;2.77;;;12.40;99.10;;;;;;12727852;23;20255;-79
2023/04/12 16:59:09;;;;;;;2.70;2.00;;;12.00;98.20;;;;;;12726173;23;20196;-79
2023/04/12 17:04:13;;;;;;;4.07;2.70;;;12.10;99.90;;;;;;12729390;23;20227;-79
2023/04/12 17:09:15;;;;;;;5.93;2.70;;;11.90;99.90;;;;;;12729266;23;20511;-79
2023/04/12 17:14:18;;;;;;;2.60;2.40;;;11.60;99.90;;;;;;12702991;23;20531;-78
2023/04/12 17:19:21;;;;;;;4.07;2.70;;;11.60;99.90;;;;;;12728723;23;20192;-80
2023/04/12 17:24:24;;;;;;;5.17;3.30;;;11.30;99.90;;;;;;12729016;23;20204;-78
2023/04/12 17:29:26;;;;;;;7.53;4.30;;;10.80;98.10;;;;;;12701807;23;20184;-79
2023/04/12 17:34:30;;;;;;;13.03;7.07;;;10.40;99.90;;;;;;12728778;23;20259;-79
2023/04/12 17:39:32;;;;;;;8.63;4.97;;;10.40;99.90;;;;;;12702420;23;20196;-78
2023/04/12 17:44:35;;;;;;;12.73;7.00;;;10.20;99.90;;;;;;12728462;23;20250;-78
2023/04/12 17:49:38;;;;;;;11.33;6.67;;;10.00;99.90;;;;;;12728985;23;20259;-78
2023/04/12 17:54:40;;;;;;;15.77;9.83;;;10.00;99.90;;;;;;12728105;23;20559;-79
2023/04/12 17:59:43;;;;;;;20.30;12.60;;;10.00;99.90;;;;;;12705368;23;20216;-84
2023/04/12 18:04:47;;;;;;;24.87;11.77;;;9.80;99.90;;;;;;12733285;23;20227;-84
2023/04/12 18:09:50;;;;;;;11.40;8.27;;;;;;;;;;12732158;23;20168;-81
2023/04/12 18:14:53;;;;;;;15.50;8.83;;;8.60;99.90;;;;;;12731649;23;20188;-83
2023/04/12 18:19:55;;;;;;;12.83;7.37;;;8.60;99.90;;;;;;12732459;23;20532;-80
2023/04/12 18:24:58;;;;;;;12.20;8.00;;;8.80;99.90;;;;;;12706308;23;20188;-79
2023/04/12 18:30:02;;;;;;;12.40;8.73;;;8.80;99.90;;;;;;12740635;23;20177;-78
2023/04/12 18:35:05;;;;;;;14.13;8.77;;;8.60;99.90;;;;;;12705494;23;20246;-78
2023/04/12 18:40:09;;;;;;;13.80;8.40;;;8.70;99.90;;;;;;12732316;23;20168;-79
2023/04/12 18:45:11;;;;;;;17.07;10.37;;;8.80;99.90;;;;;;12706120;23;20192;-79
2023/04/12 18:50:14;;;;;;;19.90;11.13;;;8.80;99.90;;;;;;12729173;23;20180;-78
2023/04/12 18:55:17;;;;;;;12.07;7.73;;;9.00;99.90;;;;;;12731646;23;20169;-80
2023/04/12 19:00:20;;;;;;;17.20;10.90;;;9.20;99.90;;;;;;12732456;23;20169;-79
2023/04/12 19:05:22;;;;;;;11.97;8.37;;;9.30;99.90;;;;;;12732158;23;20168;-78
2023/04/12 19:10:29;;;;;;;11.03;7.23;;;9.30;99.90;;;;;;12704463;23;20558;-78
2023/04/12 19:15:32;;;;;;;8.63;5.60;;;9.60;99.90;;;;;;12711361;23;20211;-81
2023/04/12 19:20:35;;;;;;;11.17;8.07;;;10.00;99.90;;;;;;12730203;23;20563;-79
2023/04/12 19:25:37;;;;;;;6.83;5.33;;;10.30;99.90;;;;;;12732082;23;20505;-78
2023/04/12 19:30:40;;;;;;;8.33;4.87;;;10.60;99.90;;;;;;12704874;23;20184;-79
2023/04/12 19:35:42;;;;;;;15.33;7.47;;;10.70;99.90;;;;;;12731288;23;20181;-79
2023/04/12 19:40:45;;;;;;;10.33;7.37;;;10.70;99.90;;;;;;12705813;23;20231;-79
2023/04/12 19:45:48;;;;;;;11.80;8.10;;;10.60;99.90;;;;;;12700835;23;20204;-79
2023/04/12 19:50:51;;;;;;;9.20;6.87;;;10.50;99.90;;;;;;12726371;23;20231;-78
2023/04/12 19:55:58;;;;;;;8.43;7.13;;;10.70;99.90;;;;;;12701074;23;20198;-79
2023/04/12 20:01:01;;;;;;;23.73;12.80;;;10.80;99.90;;;;;;12726963;23;20212;-79
2023/04/12 20:06:04;;;;;;;17.20;10.07;;;10.90;99.90;;;;;;12700450;23;20242;-78
2023/04/12 20:11:07;;;;;;;13.33;9.47;;;11.00;99.90;;;;;;12728039;23;20176;-78
2023/04/12 20:16:10;;;;;;;16.10;8.70;;;11.10;99.90;;;;;;12725886;23;20185;-78
2023/04/12 20:21:12;;;;;;;18.53;10.47;;;10.90;99.90;;;;;;12700078;23;20220;-79
2023/04/12 20:26:15;;;;;;;7.37;5.53;;;10.80;99.90;;;;;;12743320;23;20276;-79
2023/04/12 20:31:19;;;;;;;7.47;5.93;;;11.10;99.90;;;;;;12725528;23;20176;-79
2023/04/12 20:36:22;;;;;;;7.37;4.90;;;11.10;99.90;;;;;;12725753;23;20177;-78
2023/04/12 20:41:25;;;;;;;7.90;4.87;;;11.40;99.90;;;;;;12703142;23;20227;-78
2023/04/12 20:46:29;;;;;;;15.50;8.43;;;11.70;99.90;;;;;;12703138;23;20188;-78
2023/04/12 20:51:32;;;;;;;11.57;8.07;;;11.60;99.90;;;;;;12730103;23;20228;-78
2023/04/12 20:56:35;;;;;;;15.63;10.43;;;11.70;99.90;;;;;;12730438;23;20200;-79
2023/04/12 21:01:37;;;;;;;8.73;4.40;;;11.70;99.90;;;;;;12726909;23;20262;-79
2023/04/12 21:06:41;;;;;;;8.20;5.43;;;11.60;99.90;;;;;;12702695;23;20184;-80
2023/04/12 21:11:43;;;;;;;13.30;9.13;;;11.50;99.90;;;;;;12730270;23;20164;-79
2023/04/12 21:16:49;;;;;;;9.23;7.00;;;11.30;99.90;;;;;;12729184;23;20647;-79
2023/04/12 21:21:52;;;;;;;14.27;10.83;;;11.40;99.90;;;;;;12747694;23;20229;-79
2023/04/12 21:26:55;;;;;;;9.70;8.40;;;11.40;99.90;;;;;;12747746;23;20195;-79
2023/04/12 21:31:57;;;;;;;8.80;6.87;;;11.30;99.90;;;;;;12727770;23;20184;-78
2023/04/12 21:37:01;;;;;;;4.77;3.97;;;11.30;99.90;;;;;;12729609;23;20216;-78
2023/04/12 21:42:03;;;;;;;8.13;6.37;;;11.40;99.90;;;;;;12728763;23;20279;-78
2023/04/12 21:47:06;;;;;;;8.80;6.77;;;11.40;99.90;;;;;;12729507;23;20176;-77
2023/04/12 21:52:08;;;;;;;14.57;10.70;;;11.50;99.90;;;;;;12729653;23;20184;-79
2023/04/12 21:57:11;;;;;;;13.23;8.50;;;11.40;99.90;;;;;;12727387;23;20196;-78
2023/04/12 22:02:14;;;;;;;12.20;6.53;;;10.10;99.90;;;;;;12703632;23;20223;-79
2023/04/12 22:07:17;;;;;;;12.13;8.70;;;10.20;99.90;;;;;;12702594;23;20181;-79
2023/04/12 22:12:20;;;;;;;15.17;10.47;;;10.50;99.90;;;;;;12729285;23;20484;-79
2023/04/12 22:17:23;;;;;;;11.30;6.93;;;10.50;99.90;;;;;;12729047;23;20220;-79
2023/04/12 22:22:28;;;;;;;14.43;10.67;;;10.80;99.90;;;;;;12747026;23;20223;-78
2023/04/12 22:27:30;;;;;;;11.83;7.77;;;11.10;99.90;;;;;;12726887;23;20204;-79
2023/04/12 22:38:03;;;;;;;11.37;7.30;;;11.20;99.90;;;;;;12547314;23;20182;-85
2023/04/12 22:43:16;;;;;;;15.07;8.43;;;11.30;99.90;;;;;;12550496;23;20242;-85
2023/04/12 22:48:19;;;;;;;12.20;8.47;;;11.00;99.90;;;;;;12552028;23;20523;-85
2023/04/12 22:53:21;;;;;;;15.97;11.67;;;11.20;99.90;;;;;;12567455;23;20696;-84
2023/04/12 22:58:24;;;;;;;14.50;10.53;;;10.90;99.90;;;;;;12550331;23;20271;-84
2023/04/12 23:03:27;;;;;;;13.53;10.23;;;10.80;99.90;;;;;;12551448;23;20815;-85
2023/04/12 23:08:30;;;;;;;17.90;11.27;;;10.70;99.90;;;;;;12551347;23;20227;-84
2023/04/12 23:13:33;;;;;;;17.93;13.90;;;10.40;99.90;;;;;;12568198;23;20167;-84
2023/04/12 23:18:36;;;;;;;18.13;13.80;;;10.40;99.90;;;;;;12548941;23;20645;-84
2023/04/12 23:23:39;;;;;;;12.10;8.87;;;10.30;99.90;;;;;;12568435;23;20500;-84
2023/04/12 23:28:42;;;;;;;17.70;12.90;;;10.30;99.90;;;;;;12525239;23;20233;-84
2023/04/12 23:33:45;;;;;;;22.13;14.53;;;10.40;99.90;;;;;;12561518;23;20280;-85
2023/04/12 23:38:53;;;;;;;16.23;11.33;;;10.40;99.90;;;;;;12611189;23;20262;-84
2023/04/12 23:43:56;;;;;;;14.17;10.13;;;10.40;99.90;;;;;;12632537;23;20245;-85
2023/04/12 23:48:59;;;;;;;21.47;16.40;;;10.50;99.90;;;;;;12609268;23;20182;-84
2023/04/12 23:54:02;;;;;;;16.87;12.80;;;10.50;99.90;;;;;;12607354;23;20201;-85
2023/04/12 23:59:05;;;;;;;14.93;12.27;;;10.50;99.90;;;;;;12609239;23;20521;-84
